createdAt,value
2023-01-25T00:00:03.974Z,38.40
2023-01-25T00:02:52.085Z,41.40
2023-01-25T00:05:19.099Z,41.00
2023-01-25T00:07:46.164Z,38.30
2023-01-25T00:10:14.105Z,38.80
2023-01-25T00:12:41.087Z,35.90
2023-01-25T00:15:10.374Z,35.60
2023-01-25T00:17:37.736Z,34.60
2023-01-25T00:20:05.050Z,33.80
2023-01-25T00:22:32.154Z,37.00
2023-01-25T00:24:59.260Z,32.60
2023-01-25T00:27:26.265Z,32.40
2023-01-25T00:29:54.725Z,33.00
2023-01-25T00:32:59.396Z,30.60
2023-01-25T00:35:31.648Z,28.00
2023-01-25T00:38:02.154Z,28.60
2023-01-25T00:40:29.898Z,31.30
2023-01-25T00:43:00.808Z,31.30
2023-01-25T00:45:27.918Z,32.00
2023-01-25T00:47:58.508Z,31.80
2023-01-25T00:50:25.513Z,32.40
2023-01-25T00:52:52.832Z,32.30
2023-01-25T00:55:19.873Z,33.20
2023-01-25T00:57:48.916Z,35.70
2023-01-25T01:00:17.709Z,34.30
2023-01-25T01:02:46.534Z,34.30
2023-01-25T01:05:15.401Z,30.00
2023-01-25T01:07:43.842Z,33.30
2023-01-25T01:10:13.743Z,31.40
2023-01-25T01:12:40.824Z,30.50
2023-01-25T01:15:09.791Z,30.10
2023-01-25T01:17:36.961Z,27.10
2023-01-25T01:20:03.977Z,26.10
2023-01-25T01:22:30.973Z,28.30
2023-01-25T01:24:58.100Z,27.90
2023-01-25T01:27:25.118Z,27.30
2023-01-25T01:29:52.124Z,24.20
2023-01-25T01:32:19.543Z,23.70
2023-01-25T01:34:47.025Z,24.50
2023-01-25T01:37:14.075Z,25.10
2023-01-25T01:39:41.377Z,24.30
2023-01-25T01:42:08.593Z,21.20
2023-01-25T01:44:50.454Z,22.30
2023-01-25T01:47:22.859Z,20.80
2023-01-25T01:49:55.507Z,24.30
2023-01-25T01:52:28.639Z,23.80
2023-01-25T01:55:02.130Z,24.60
2023-01-25T01:57:36.538Z,23.50
2023-01-25T02:00:07.074Z,21.70
2023-01-25T02:02:40.251Z,23.60
2023-01-25T02:05:12.633Z,25.10
2023-01-25T02:07:41.553Z,24.00
2023-01-25T02:10:12.867Z,27.40
2023-01-25T02:12:42.643Z,23.10
2023-01-25T02:15:12.104Z,23.00
2023-01-25T02:17:40.902Z,22.60
2023-01-25T02:20:18.219Z,21.30
2023-01-25T02:22:50.628Z,22.90
2023-01-25T02:25:19.908Z,24.80
2023-01-25T02:27:52.225Z,25.90
2023-01-25T02:30:20.082Z,23.20
2023-01-25T02:32:47.092Z,22.70
2023-01-25T02:35:21.345Z,23.60
2023-01-25T02:37:50.089Z,22.70
2023-01-25T02:40:18.335Z,20.30
2023-01-25T02:42:47.557Z,21.60
2023-01-25T02:45:19.873Z,22.90
2023-01-25T02:47:48.794Z,21.70
2023-01-25T02:50:16.475Z,22.70
2023-01-25T02:52:43.596Z,20.80
2023-01-25T02:55:12.964Z,23.20
2023-01-25T02:57:41.748Z,22.70
2023-01-25T03:00:11.786Z,21.90
2023-01-25T03:02:39.696Z,22.00
2023-01-25T03:05:08.183Z,22.10
2023-01-25T03:07:35.377Z,20.00
2023-01-25T03:10:03.810Z,21.20
2023-01-25T03:12:31.152Z,22.70
2023-01-25T03:14:58.598Z,20.80
2023-01-25T03:17:26.635Z,21.70
2023-01-25T03:19:54.078Z,19.40
2023-01-25T03:22:21.794Z,22.80
2023-01-25T03:24:49.291Z,19.40
2023-01-25T03:27:18.763Z,20.30
2023-01-25T03:30:01.769Z,23.00
2023-01-25T03:32:31.510Z,23.60
2023-01-25T03:35:02.720Z,21.00
2023-01-25T03:37:31.419Z,21.20
2023-01-25T03:39:58.867Z,19.00
2023-01-25T03:42:26.625Z,17.60
2023-01-25T03:44:56.725Z,14.70
2023-01-25T03:47:23.725Z,12.50
2023-01-25T03:49:51.149Z,12.60
2023-01-25T03:52:19.012Z,14.90
2023-01-25T03:54:46.716Z,16.00
2023-01-25T03:57:13.867Z,14.70
2023-01-25T03:59:57.538Z,14.10
2023-01-25T04:02:25.381Z,14.20
2023-01-25T04:04:52.910Z,14.60
2023-01-25T04:07:21.551Z,15.70
2023-01-25T04:09:50.275Z,14.10
2023-01-25T04:12:17.808Z,16.60
2023-01-25T04:14:45.224Z,14.90
2023-01-25T04:17:21.417Z,16.20
2023-01-25T04:19:52.392Z,15.80
2023-01-25T04:22:21.355Z,16.00
2023-01-25T04:24:49.321Z,16.20
2023-01-25T04:27:16.469Z,18.60
2023-01-25T04:29:52.631Z,20.30
2023-01-25T04:32:20.278Z,22.30
2023-01-25T04:34:47.461Z,23.30
2023-01-25T04:37:17.186Z,28.90
2023-01-25T04:39:51.216Z,29.60
2023-01-25T04:42:18.460Z,30.90
2023-01-25T04:44:46.618Z,30.60
2023-01-25T04:47:13.737Z,33.30
2023-01-25T04:49:41.217Z,33.40
2023-01-25T04:52:10.681Z,38.20
2023-01-25T04:54:37.905Z,34.30
2023-01-25T04:57:05.686Z,37.00
2023-01-25T04:59:32.893Z,36.20
2023-01-25T05:02:01.193Z,37.20
2023-01-25T05:04:28.602Z,38.60
2023-01-25T05:06:55.586Z,39.20
2023-01-25T05:09:22.828Z,40.20
2023-01-25T05:11:50.133Z,37.40
2023-01-25T05:14:32.834Z,39.00
2023-01-25T05:17:00.507Z,38.50
2023-01-25T05:19:27.780Z,40.20
2023-01-25T05:21:59.793Z,40.80
2023-01-25T05:24:33.493Z,40.50
2023-01-25T05:27:08.202Z,35.00
2023-01-25T05:30:01.082Z,38.20
2023-01-25T05:32:57.878Z,36.50
2023-01-25T05:35:25.037Z,38.20
2023-01-25T05:37:57.111Z,40.30
2023-01-25T05:40:24.387Z,39.60
2023-01-25T05:42:58.493Z,37.90
2023-01-25T05:45:26.661Z,36.50
2023-01-25T05:47:57.566Z,42.20
2023-01-25T05:50:25.488Z,41.40
2023-01-25T05:53:15.302Z,42.80
2023-01-25T05:55:42.403Z,43.40
2023-01-25T05:58:13.177Z,45.70
2023-01-25T06:00:40.397Z,44.00
2023-01-25T06:03:07.977Z,46.90
2023-01-25T06:05:37.223Z,46.70
2023-01-25T06:08:05.104Z,43.80
2023-01-25T06:10:42.590Z,47.00
2023-01-25T06:13:10.037Z,44.80
2023-01-25T06:15:37.194Z,43.80
2023-01-25T06:18:25.479Z,43.30
2023-01-25T06:21:13.312Z,45.60
2023-01-25T06:23:43.007Z,48.70
2023-01-25T06:26:13.622Z,45.90
2023-01-25T06:28:41.316Z,48.90
2023-01-25T06:31:13.220Z,44.20
2023-01-25T06:33:41.524Z,46.00
2023-01-25T06:36:14.207Z,44.90
2023-01-25T06:38:42.069Z,45.90
2023-01-25T06:41:12.517Z,38.80
2023-01-25T06:43:40.126Z,43.20
2023-01-25T06:46:09.362Z,38.70
2023-01-25T06:48:36.875Z,41.00
2023-01-25T06:51:06.131Z,40.40
2023-01-25T06:53:34.935Z,40.20
2023-01-25T06:56:04.100Z,43.30
2023-01-25T06:58:32.547Z,45.20
2023-01-25T10:59:09.824Z,65.80
2023-01-25T11:01:38.239Z,63.70
2023-01-25T11:04:22.614Z,64.10
2023-01-25T11:06:52.570Z,62.90
2023-01-25T11:09:40.373Z,63.00
2023-01-25T11:12:17.683Z,64.30
2023-01-25T11:14:44.950Z,65.00
2023-01-25T11:17:26.464Z,68.90
2023-01-25T11:20:08.724Z,61.10
2023-01-25T11:22:35.970Z,71.80
2023-01-25T11:25:28.463Z,65.00
2023-01-25T11:28:18.843Z,67.00
2023-01-25T11:30:46.763Z,67.70
2023-01-25T11:33:15.783Z,66.90
2023-01-25T11:35:53.759Z,69.30
2023-01-25T11:38:24.290Z,67.10
2023-01-25T11:40:57.264Z,70.10
2023-01-25T11:43:42.450Z,68.20
2023-01-25T11:46:22.607Z,66.00
2023-01-25T11:49:14.079Z,69.90
2023-01-25T11:51:49.913Z,73.70
2023-01-25T11:54:42.629Z,69.30
2023-01-25T11:57:26.665Z,68.50
2023-01-25T12:00:06.279Z,69.30
2023-01-25T12:03:09.709Z,65.80
2023-01-25T12:05:49.807Z,65.30
2023-01-25T12:08:33.026Z,66.60
2023-01-25T12:11:08.361Z,60.20
2023-01-25T12:13:47.636Z,64.90
2023-01-25T12:16:27.509Z,64.60
2023-01-25T12:19:17.880Z,66.40
2023-01-25T12:21:58.935Z,64.00
2023-01-25T12:24:39.946Z,70.90
2023-01-25T12:27:25.167Z,73.00
2023-01-25T12:29:59.408Z,69.90
2023-01-25T12:32:35.777Z,68.10
2023-01-25T12:35:23.561Z,71.80
2023-01-25T12:37:55.748Z,67.20
2023-01-25T12:40:29.605Z,68.90
2023-01-25T12:43:02.139Z,64.30
2023-01-25T12:45:32.946Z,67.50
2023-01-25T12:48:07.979Z,72.10
2023-01-25T12:50:41.633Z,69.70
2023-01-25T12:53:20.586Z,61.50
2023-01-25T12:55:48.907Z,62.90
2023-01-25T12:58:26.497Z,63.20
2023-01-25T13:01:06.939Z,62.40
2023-01-25T13:03:48.538Z,61.00
2023-01-25T13:06:23.671Z,61.10
2023-01-25T13:09:01.873Z,59.00
2023-01-25T13:11:34.665Z,63.40
2023-01-25T13:14:31.932Z,59.10
2023-01-25T13:17:13.410Z,61.70
2023-01-25T13:19:43.963Z,64.10
2023-01-25T13:22:12.798Z,71.10
2023-01-25T13:25:20.132Z,63.60
2023-01-25T13:27:47.156Z,63.80
2023-01-25T13:30:29.700Z,67.10
2023-01-25T13:32:59.222Z,61.80
2023-01-25T13:35:32.882Z,62.60
2023-01-25T13:38:33.841Z,65.50
2023-01-25T13:41:20.401Z,62.20
2023-01-25T13:44:10.164Z,62.80
2023-01-25T13:46:38.001Z,58.90
2023-01-25T13:49:18.728Z,62.90
2023-01-25T13:51:46.582Z,64.20
2023-01-25T13:54:18.889Z,64.20
2023-01-25T13:56:46.289Z,63.00
2023-01-25T13:59:28.012Z,61.50
2023-01-25T14:01:57.404Z,60.60
2023-01-25T14:04:25.142Z,67.70
2023-01-25T14:06:57.918Z,63.60
2023-01-25T14:09:25.668Z,67.50
2023-01-25T14:11:57.762Z,67.70
2023-01-25T14:14:30.205Z,61.60
2023-01-25T14:17:18.335Z,65.10
2023-01-25T14:19:50.056Z,63.80
2023-01-25T14:22:25.159Z,66.80
2023-01-25T14:25:08.694Z,63.00
2023-01-25T14:27:36.175Z,62.40
2023-01-25T14:30:04.334Z,56.80
2023-01-25T14:32:31.654Z,57.70
2023-01-25T14:34:58.697Z,56.90
2023-01-25T14:37:25.959Z,53.80
2023-01-25T14:39:54.547Z,51.60
2023-01-25T14:42:21.912Z,55.30
2023-01-25T14:44:49.716Z,47.00
2023-01-25T14:47:41.074Z,52.60
2023-01-25T14:50:36.428Z,53.80
2023-01-25T14:53:10.604Z,56.00
2023-01-25T14:55:38.585Z,49.30
2023-01-25T14:58:07.852Z,55.60
2023-01-25T15:00:36.347Z,56.90
2023-01-25T15:03:06.310Z,61.10
2023-01-25T15:05:35.584Z,58.10
2023-01-25T15:08:17.519Z,64.20
2023-01-25T15:10:54.764Z,64.10
2023-01-25T15:13:26.237Z,65.80
2023-01-25T15:16:00.510Z,68.80
2023-01-25T15:18:46.532Z,69.40
2023-01-25T15:21:15.846Z,67.00
2023-01-25T15:23:44.509Z,66.60
2023-01-25T15:26:20.111Z,68.50
2023-01-25T15:28:47.394Z,64.50
2023-01-25T15:31:19.736Z,60.30
2023-01-25T15:33:47.108Z,66.70
2023-01-25T15:36:16.113Z,67.30
2023-01-25T15:38:43.474Z,62.10
2023-01-25T15:41:12.574Z,59.60
2023-01-25T15:43:40.034Z,56.30
2023-01-25T15:46:13.289Z,60.80
2023-01-25T15:48:43.755Z,59.90
2023-01-25T15:51:11.834Z,57.70
2023-01-25T15:53:39.457Z,59.40
2023-01-25T15:56:11.792Z,64.80
2023-01-25T15:58:42.313Z,58.20
2023-01-25T16:01:10.453Z,63.20
2023-01-25T16:03:41.500Z,62.40
2023-01-25T16:06:23.191Z,61.20
2023-01-25T16:08:50.350Z,64.10
2023-01-25T16:11:18.411Z,61.20
2023-01-25T16:13:45.571Z,59.70
2023-01-25T16:16:21.032Z,58.90
2023-01-25T16:18:49.830Z,62.10
2023-01-25T16:21:17.100Z,64.70
2023-01-25T16:23:44.091Z,62.30
2023-01-25T16:26:20.823Z,59.10
2023-01-25T16:31:30.756Z,63.50
2023-01-25T16:33:59.462Z,66.70
2023-01-25T16:36:27.090Z,66.20
2023-01-25T16:38:54.205Z,63.20
2023-01-25T16:41:21.451Z,64.60
2023-01-25T16:43:49.863Z,65.80
2023-01-25T16:46:19.961Z,67.70
2023-01-25T16:48:48.581Z,64.40
2023-01-25T16:51:21.851Z,64.70
2023-01-25T16:53:51.055Z,61.90
2023-01-25T16:56:21.420Z,64.20
2023-01-25T16:58:49.564Z,66.20
2023-01-25T17:01:19.111Z,55.20
2023-01-25T17:03:46.765Z,59.80
2023-01-25T17:06:20.502Z,60.20
2023-01-25T17:08:47.630Z,60.80
2023-01-25T17:11:15.446Z,63.60
2023-01-25T17:13:43.015Z,66.80
2023-01-25T17:16:11.873Z,63.20
2023-01-25T17:18:39.174Z,60.00
2023-01-25T17:21:09.102Z,57.90
2023-01-25T17:23:38.708Z,62.20
2023-01-25T17:26:08.541Z,62.50
2023-01-25T17:28:36.087Z,64.20
2023-01-25T17:31:03.636Z,64.00
2023-01-25T17:33:32.391Z,60.40
2023-01-25T17:36:04.481Z,55.90
2023-01-25T17:38:31.713Z,63.10
2023-01-25T17:41:03.515Z,58.20
2023-01-25T17:43:32.054Z,63.20
2023-01-25T17:46:00.250Z,60.30
2023-01-25T17:48:27.735Z,66.00
2023-01-25T17:51:06.104Z,63.10
2023-01-25T17:53:33.508Z,63.20
2023-01-25T17:56:05.001Z,66.10
2023-01-25T17:58:33.295Z,68.00
2023-01-25T18:01:12.999Z,66.00
2023-01-25T18:03:41.651Z,61.50
2023-01-25T18:06:10.300Z,65.30
2023-01-25T18:08:40.380Z,60.50
2023-01-25T18:11:10.463Z,61.70
2023-01-25T18:13:39.817Z,69.90
2023-01-25T18:16:09.952Z,64.10
2023-01-25T18:18:37.422Z,65.90
2023-01-25T18:21:11.796Z,65.60
2023-01-25T18:23:40.145Z,64.90
2023-01-25T18:26:09.271Z,66.80
2023-01-25T18:28:37.417Z,64.30
2023-01-25T18:31:07.105Z,67.60
2023-01-25T18:33:34.655Z,70.30
2023-01-25T18:36:03.987Z,68.40
2023-01-25T18:38:31.873Z,71.90
2023-01-25T18:40:59.301Z,71.70
2023-01-25T18:43:28.177Z,65.50
2023-01-25T18:45:59.641Z,62.60
2023-01-25T18:48:31.386Z,65.10
2023-01-25T18:50:58.954Z,73.50
2023-01-25T18:53:27.457Z,73.80
2023-01-25T18:56:03.544Z,71.00
2023-01-25T18:58:32.518Z,81.30
2023-01-25T19:01:06.626Z,71.30
2023-01-25T19:03:34.011Z,70.30
2023-01-25T19:06:01.539Z,76.00
2023-01-25T19:08:32.245Z,69.90
2023-01-25T19:11:04.412Z,67.30
2023-01-25T19:13:34.272Z,71.00
2023-01-25T19:16:06.650Z,69.00
2023-01-25T19:18:35.877Z,67.40
2023-01-25T19:21:04.139Z,67.40
2023-01-25T19:23:35.913Z,66.10
2023-01-25T19:26:03.101Z,66.10
2023-01-25T19:28:30.357Z,69.70
2023-01-25T19:30:58.106Z,66.40
2023-01-25T19:33:25.348Z,67.40
2023-01-25T19:35:59.282Z,63.00
2023-01-25T19:38:26.244Z,65.60
2023-01-25T19:40:53.567Z,69.20
2023-01-25T19:43:20.718Z,63.30
2023-01-25T19:45:47.667Z,57.10
2023-01-25T19:48:15.012Z,58.30
2023-01-25T19:50:42.181Z,63.40
2023-01-25T19:53:09.517Z,58.10
2023-01-25T19:55:36.875Z,54.50
2023-01-25T19:58:04.630Z,51.70
2023-01-25T20:00:31.691Z,60.40
2023-01-25T20:03:10.703Z,61.00
2023-01-25T20:05:43.210Z,61.10
2023-01-25T20:08:10.660Z,65.40
2023-01-25T20:10:38.472Z,58.90
2023-01-25T20:13:05.763Z,64.50
2023-01-25T20:15:32.912Z,65.20
2023-01-25T20:17:59.897Z,62.40
2023-01-25T20:20:27.023Z,62.10
2023-01-25T20:22:55.901Z,59.00
2023-01-25T20:25:23.461Z,64.70
2023-01-25T20:27:50.611Z,63.40
2023-01-25T20:30:18.593Z,66.60
2023-01-25T20:32:45.726Z,54.00
2023-01-25T20:35:13.428Z,59.60
2023-01-25T20:37:40.712Z,59.00
2023-01-25T20:40:10.014Z,64.80
2023-01-25T20:42:37.771Z,60.70
2023-01-25T20:45:05.793Z,60.10
2023-01-25T20:47:32.744Z,64.00
2023-01-25T20:49:59.897Z,64.20
2023-01-25T20:52:27.025Z,62.80
2023-01-25T20:54:54.795Z,60.70
2023-01-25T20:57:21.943Z,64.40
2023-01-25T20:59:48.984Z,61.70
2023-01-25T21:02:16.006Z,67.80
2023-01-25T21:04:43.070Z,73.80
2023-01-25T21:07:10.770Z,71.40
2023-01-25T21:09:37.708Z,70.00
2023-01-25T21:12:05.042Z,75.30
2023-01-25T21:14:32.244Z,75.30
2023-01-25T21:17:01.763Z,74.50
2023-01-25T21:19:28.961Z,77.00
2023-01-25T21:21:56.208Z,78.10
2023-01-25T21:24:23.640Z,74.00
2023-01-25T21:26:50.935Z,75.00
2023-01-25T21:29:20.441Z,78.90
2023-01-25T21:31:49.251Z,73.90
2023-01-25T21:34:16.772Z,79.70
2023-01-25T21:36:44.057Z,78.10
2023-01-25T21:39:11.289Z,73.30
2023-01-25T21:41:38.331Z,82.80
2023-01-25T21:44:23.607Z,80.00
2023-01-25T21:49:55.518Z,86.40
2023-01-25T21:52:22.494Z,80.70
2023-01-25T21:54:49.706Z,78.50
2023-01-25T21:57:16.744Z,81.20
2023-01-25T21:59:43.876Z,80.00
2023-01-25T22:02:14.834Z,79.30
2023-01-25T22:04:42.604Z,88.40
2023-01-25T22:07:10.995Z,79.50
2023-01-25T22:09:38.119Z,83.60
2023-01-25T22:12:05.370Z,78.00
2023-01-25T22:14:32.432Z,78.20
2023-01-25T22:16:59.871Z,82.50
2023-01-25T22:19:27.292Z,80.10
2023-01-25T22:21:54.484Z,81.10
2023-01-25T22:24:21.953Z,81.10
2023-01-25T22:26:59.025Z,79.90
2023-01-25T22:29:26.712Z,83.60
2023-01-25T22:31:53.945Z,84.10
2023-01-25T22:34:21.546Z,85.00
2023-01-25T22:36:48.943Z,83.20
2023-01-25T22:39:19.732Z,88.70
2023-01-25T22:41:46.778Z,85.50
2023-01-25T22:44:14.836Z,86.20
2023-01-25T22:46:42.160Z,79.90
2023-01-25T22:49:09.131Z,81.20
2023-01-25T22:51:36.459Z,74.30
2023-01-25T22:54:03.916Z,76.60
2023-01-25T22:56:33.280Z,79.40
2023-01-25T22:59:01.083Z,71.90
2023-01-25T23:01:30.953Z,72.20
2023-01-25T23:03:58.774Z,74.80
2023-01-25T23:06:27.757Z,71.50
2023-01-25T23:08:57.484Z,70.60
2023-01-25T23:11:32.383Z,72.10
2023-01-25T23:14:17.432Z,68.20
2023-01-25T23:16:45.436Z,68.60
2023-01-25T23:19:12.731Z,76.20
2023-01-25T23:21:40.039Z,68.30
2023-01-25T23:24:08.169Z,69.40
2023-01-25T23:26:39.051Z,67.40
2023-01-25T23:29:09.479Z,66.70
2023-01-25T23:31:37.009Z,67.30
2023-01-25T23:34:06.544Z,68.80
2023-01-25T23:36:35.546Z,66.20
2023-01-25T23:39:03.323Z,70.50
2023-01-25T23:41:31.988Z,67.70
2023-01-25T23:44:00.937Z,65.70
2023-01-25T23:46:29.364Z,69.80
2023-01-25T23:48:56.818Z,67.80
2023-01-25T23:51:23.968Z,70.40
2023-01-25T23:53:53.604Z,70.50
2023-01-25T23:56:22.975Z,71.40
2023-01-25T23:58:50.439Z,73.10
